Terminal Aerodrome Forecast
Issued by NWS

Home | Current Version | Previous Version | Text Only | Print | Product List | Glossary On
Versions: 1 2 3 4 5 6 7 8 9 10 11 12 13 14 15 16 17 18 19
000
FTUS46 KLOX 232339
TAFLGB
TAF
KLGB 232339Z 2400/2424 20007KT P6SM SCT250
     FM240200 VRB03KT P6SM FEW010 SCT250
     FM240400 VRB03KT 5SM BR BKN005
     FM240600 VRB03KT 6SM BR OVC007
     FM241200 14004KT 6SM BR OVC011
     FM241600 17005KT P6SM BKN011
     FM241800 19008KT P6SM FEW014 SCT250=

USA.gov is the U.S. government's official web portal to all federal, state and local government web resources and services.